Time;durP1;ratioP1;P1;durP2;ratioP2;P2;SDS_P1;SDS_P2;PMS_P1;PMS_P2;Temp;Humidity;BMP_temperature;BMP_pressure;BME280_temperature;BME280_humidity;BME280_pressure;Samples;Min_cycle;Max_cycle;Signal;HPM_P1;HPM_P2
2021/09/19 00:01:14;;;;;;;6.30;4.87;;;14.20;98.30;;;;;;5166067;23;20482;-80
2021/09/19 00:03:19;;;;;;;11.10;5.00;;;14.10;98.30;;;;;;5174902;23;20451;-82
2021/09/19 00:05:22;;;;;;;8.30;5.00;;;14.10;98.30;;;;;;5173907;23;20471;-80
2021/09/19 00:07:25;;;;;;;6.13;4.80;;;14.10;98.30;;;;;;5175097;23;20515;-80
2021/09/19 00:09:28;;;;;;;9.97;4.80;;;14.20;98.30;;;;;;5166340;23;20428;-80
2021/09/19 00:11:30;;;;;;;5.60;4.90;;;14.20;98.30;;;;;;5166989;23;20505;-81
2021/09/19 00:13:33;;;;;;;5.53;4.30;;;14.30;98.30;;;;;;5175499;23;20474;-81
2021/09/19 00:15:36;;;;;;;7.03;5.27;;;14.20;98.30;;;;;;5168004;23;20507;-81
2021/09/19 00:17:39;;;;;;;5.70;4.73;;;14.30;98.30;;;;;;5168820;23;20423;-80
2021/09/19 00:19:44;;;;;;;6.83;5.13;;;14.30;98.30;;;;;;5170798;23;20481;-80
2021/09/19 00:21:47;;;;;;;7.83;4.77;;;14.20;98.30;;;;;;5168503;23;20534;-79
2021/09/19 00:23:50;;;;;;;6.80;4.50;;;14.30;98.30;;;;;;5177304;23;20782;-80
2021/09/19 00:25:53;;;;;;;6.33;5.00;;;14.30;98.30;;;;;;5168080;23;20431;-81
2021/09/19 00:27:56;;;;;;;5.57;4.97;;;14.30;98.30;;;;;;5177289;23;20736;-80
2021/09/19 00:29:59;;;;;;;6.33;4.50;;;14.40;98.30;;;;;;5168126;23;20427;-80
2021/09/19 00:32:02;;;;;;;6.10;4.90;;;14.40;98.30;;;;;;5168308;23;20482;-81
2021/09/19 00:34:05;;;;;;;8.43;5.00;;;14.40;98.30;;;;;;5168983;23;20428;-79
2021/09/19 00:36:09;;;;;;;7.07;4.93;;;14.40;98.30;;;;;;5167861;23;20478;-81
2021/09/19 00:38:12;;;;;;;6.80;4.83;;;14.30;98.30;;;;;;5168319;23;20427;-80
2021/09/19 00:40:15;;;;;;;5.43;4.83;;;14.30;98.30;;;;;;5168157;23;20423;-80
2021/09/19 00:42:18;;;;;;;6.90;4.60;;;14.30;98.30;;;;;;5169105;23;20446;-82
2021/09/19 00:44:25;;;;;;;8.20;5.43;;;14.20;98.30;;;;;;5168459;23;20431;-80
2021/09/19 00:46:28;;;;;;;7.30;5.07;;;14.20;98.30;;;;;;5168405;23;20513;-80
2021/09/19 00:48:31;;;;;;;5.73;4.50;;;14.20;98.30;;;;;;5168201;23;20749;-81
2021/09/19 00:50:34;;;;;;;7.20;4.60;;;14.10;98.30;;;;;;5167776;23;20427;-81
2021/09/19 00:52:41;;;;;;;7.23;4.50;;;14.10;98.30;;;;;;5167956;23;20451;-80
2021/09/19 00:54:45;;;;;;;7.73;5.30;;;14.20;98.30;;;;;;5167394;23;20416;-80
2021/09/19 00:56:54;;;;;;;6.03;5.17;;;14.20;98.30;;;;;;5167784;23;20478;-80
2021/09/19 00:58:58;;;;;;;6.73;5.03;;;14.10;98.30;;;;;;5175774;23;20419;-80
2021/09/19 01:01:02;;;;;;;7.90;4.70;;;14.20;98.30;;;;;;5176540;23;20419;-81
2021/09/19 01:03:06;;;;;;;7.60;4.43;;;14.20;98.30;;;;;;5176779;23;20420;-80
2021/09/19 01:05:12;;;;;;;8.13;4.67;;;14.10;98.30;;;;;;5168153;23;20431;-79
2021/09/19 01:07:16;;;;;;;7.97;5.00;;;14.20;98.30;;;;;;5167409;23;20427;-80
2021/09/19 01:09:21;;;;;;;7.07;4.60;;;14.30;98.30;;;;;;5176080;23;20424;-80
2021/09/19 01:11:24;;;;;;;5.30;4.40;;;14.40;98.30;;;;;;5167450;23;20466;-80
2021/09/19 01:13:28;;;;;;;5.93;4.40;;;14.40;98.30;;;;;;5175876;23;20428;-80
2021/09/19 01:15:31;;;;;;;7.83;5.23;;;14.40;98.30;;;;;;5175903;23;20466;-79
2021/09/19 01:17:35;;;;;;;9.07;5.20;;;14.50;98.30;;;;;;5167298;23;20439;-80
2021/09/19 01:19:40;;;;;;;6.80;5.13;;;14.40;98.30;;;;;;5167203;23;20762;-80
2021/09/19 01:21:43;;;;;;;6.10;4.87;;;14.40;98.30;;;;;;5166868;23;20471;-80
2021/09/19 01:23:58;;;;;;;6.97;5.20;;;14.40;98.30;;;;;;5168326;23;20486;-79
2021/09/19 01:26:01;;;;;;;9.30;5.70;;;14.40;98.30;;;;;;5178369;23;20486;-81
2021/09/19 01:28:05;;;;;;;6.90;4.80;;;14.40;98.30;;;;;;5167715;23;20431;-80
2021/09/19 01:30:09;;;;;;;6.47;5.40;;;14.30;98.30;;;;;;5167882;23;20434;-81
2021/09/19 01:32:16;;;;;;;7.03;4.97;;;14.20;98.30;;;;;;5168144;23;21054;-80
2021/09/19 01:34:19;;;;;;;5.10;4.20;;;14.20;98.30;;;;;;5177040;23;20427;-81
2021/09/19 01:36:22;;;;;;;9.57;5.50;;;14.20;98.30;;;;;;5168039;23;20435;-80
2021/09/19 01:38:25;;;;;;;8.90;4.43;;;14.10;98.30;;;;;;5167992;23;20746;-80
2021/09/19 01:40:30;;;;;;;6.03;4.20;;;14.20;98.30;;;;;;5168061;23;20459;-80
2021/09/19 01:42:33;;;;;;;7.07;4.77;;;14.20;98.30;;;;;;5167920;23;20440;-80
2021/09/19 01:44:35;;;;;;;8.23;5.40;;;14.20;98.30;;;;;;5168313;23;20755;-81
2021/09/19 01:46:38;;;;;;;7.60;5.07;;;14.20;98.30;;;;;;5176138;23;20416;-80
2021/09/19 01:48:42;;;;;;;8.50;5.43;;;14.20;98.30;;;;;;5176195;23;20917;-79
2021/09/19 01:50:45;;;;;;;6.10;4.80;;;14.30;98.30;;;;;;5168166;23;20824;-80
2021/09/19 01:52:48;;;;;;;6.97;5.20;;;14.30;98.30;;;;;;5167499;23;20478;-81
2021/09/19 01:54:51;;;;;;;7.90;5.10;;;14.30;98.30;;;;;;5176128;23;20416;-80
2021/09/19 01:56:56;;;;;;;6.63;5.43;;;14.20;98.30;;;;;;5166355;23;20432;-80
2021/09/19 01:58:58;;;;;;;6.00;4.70;;;14.20;98.30;;;;;;5166794;23;20431;-80
2021/09/19 02:01:02;;;;;;;6.17;4.70;;;14.20;98.30;;;;;;5166869;23;20454;-80
2021/09/19 02:03:07;;;;;;;7.00;5.00;;;14.20;98.30;;;;;;5167015;23;20424;-80
2021/09/19 02:05:11;;;;;;;6.60;4.53;;;14.20;98.30;;;;;;5167083;23;20432;-81
2021/09/19 02:07:14;;;;;;;5.70;4.57;;;14.10;98.30;;;;;;5167437;23;21034;-80
2021/09/19 02:09:17;;;;;;;6.10;4.70;;;14.10;98.30;;;;;;5167481;23;20427;-79
2021/09/19 02:11:22;;;;;;;7.70;4.40;;;14.10;98.30;;;;;;5167494;23;20534;-81
2021/09/19 02:13:26;;;;;;;6.27;4.50;;;13.90;98.30;;;;;;5167620;23;20979;-81
2021/09/19 02:15:29;;;;;;;8.00;5.17;;;14.00;98.30;;;;;;5176564;23;20482;-81
2021/09/19 02:17:32;;;;;;;10.60;5.43;;;14.00;98.30;;;;;;5167542;23;20424;-81
2021/09/19 02:19:35;;;;;;;10.93;4.60;;;14.10;98.30;;;;;;5167658;23;20794;-81
2021/09/19 02:21:38;;;;;;;9.53;5.30;;;14.20;98.30;;;;;;5167916;23;20463;-80
2021/09/19 02:23:41;;;;;;;7.87;4.77;;;14.20;98.30;;;;;;5168585;23;20510;-80
2021/09/19 02:25:44;;;;;;;8.03;5.80;;;14.20;98.30;;;;;;5170417;23;20434;-80
2021/09/19 02:27:47;;;;;;;6.10;4.53;;;14.20;98.30;;;;;;5167626;23;20455;-80
2021/09/19 02:29:51;;;;;;;7.83;4.90;;;14.20;98.30;;;;;;5167629;23;20466;-81
2021/09/19 02:31:54;;;;;;;8.13;4.83;;;14.10;98.30;;;;;;5167723;23;20448;-81
2021/09/19 02:33:57;;;;;;;7.17;4.93;;;14.00;98.30;;;;;;5167488;23;21012;-80
2021/09/19 02:36:00;;;;;;;10.30;6.20;;;13.90;98.30;;;;;;5167358;23;20817;-82
2021/09/19 02:38:03;;;;;;;11.47;7.50;;;13.90;98.30;;;;;;5167313;23;20919;-79
2021/09/19 02:40:08;;;;;;;9.63;6.97;;;13.90;98.30;;;;;;5175156;23;20432;-81
2021/09/19 02:42:10;;;;;;;10.80;7.50;;;13.90;98.30;;;;;;5167885;23;20452;-82
2021/09/19 02:44:13;;;;;;;8.77;5.93;;;14.00;98.30;;;;;;5167899;23;20428;-80
2021/09/19 02:46:18;;;;;;;9.60;5.93;;;13.90;98.30;;;;;;5167303;23;20459;-81
2021/09/19 02:48:21;;;;;;;9.67;7.20;;;14.00;98.30;;;;;;5167514;23;20507;-81
2021/09/19 02:50:25;;;;;;;6.50;4.90;;;13.90;98.30;;;;;;5167152;23;20428;-80
2021/09/19 02:52:28;;;;;;;4.90;4.40;;;13.90;98.30;;;;;;5167487;23;21016;-81
2021/09/19 02:54:31;;;;;;;6.70;4.30;;;13.80;98.30;;;;;;5166717;23;20428;-80
2021/09/19 02:56:34;;;;;;;5.93;4.93;;;13.80;98.30;;;;;;5166605;23;20450;-79
2021/09/19 02:58:37;;;;;;;6.97;4.47;;;13.70;98.30;;;;;;5166592;23;20497;-79
2021/09/19 03:00:40;;;;;;;7.40;4.90;;;13.70;98.30;;;;;;5166582;23;20521;-81
2021/09/19 03:02:45;;;;;;;6.40;4.60;;;13.60;98.30;;;;;;5166879;23;20448;-80
2021/09/19 03:04:48;;;;;;;5.80;4.57;;;13.70;98.30;;;;;;5166159;23;20881;-80
2021/09/19 03:06:51;;;;;;;7.03;5.23;;;13.60;98.30;;;;;;5166794;23;20510;-80
2021/09/19 03:08:54;;;;;;;7.40;4.87;;;13.50;98.30;;;;;;5174980;23;20427;-80
2021/09/19 03:10:57;;;;;;;6.30;4.70;;;13.50;98.30;;;;;;5166882;23;20435;-80
2021/09/19 03:13:01;;;;;;;11.37;4.83;;;13.50;98.30;;;;;;5166638;23;20440;-81
2021/09/19 03:15:05;;;;;;;7.27;4.10;;;13.40;98.30;;;;;;5165849;23;20543;-80
2021/09/19 03:17:08;;;;;;;5.97;4.30;;;13.40;98.30;;;;;;5174781;23;20432;-80
2021/09/19 03:19:12;;;;;;;5.77;4.50;;;13.50;98.30;;;;;;5174948;23;20481;-81
2021/09/19 03:21:16;;;;;;;7.27;5.20;;;13.40;98.30;;;;;;5166054;23;20440;-81
2021/09/19 03:23:18;;;;;;;8.03;5.10;;;13.40;98.30;;;;;;5166457;23;20461;-80
2021/09/19 03:25:21;;;;;;;6.23;4.80;;;13.30;98.30;;;;;;5166653;23;20447;-80
2021/09/19 03:27:24;;;;;;;6.50;4.23;;;13.50;98.30;;;;;;5166577;23;20935;-80
2021/09/19 03:29:27;;;;;;;8.20;4.53;;;13.60;98.30;;;;;;5165914;23;20519;-79
2021/09/19 03:31:30;;;;;;;8.80;5.30;;;13.80;98.30;;;;;;5169485;23;20521;-80
2021/09/19 03:33:33;;;;;;;6.20;4.97;;;13.90;98.30;;;;;;5166352;23;20451;-79
2021/09/19 03:35:37;;;;;;;6.50;4.50;;;13.90;98.30;;;;;;5166282;23;20428;-79
2021/09/19 03:37:40;;;;;;;6.63;4.17;;;13.80;98.30;;;;;;5174547;23;21004;-79
2021/09/19 03:39:43;;;;;;;6.10;4.47;;;13.80;98.30;;;;;;5164703;23;20434;-80
2021/09/19 03:41:46;;;;;;;5.43;4.70;;;13.80;98.30;;;;;;5166204;23;20451;-79
2021/09/19 03:43:50;;;;;;;8.80;4.47;;;13.90;98.30;;;;;;5166348;23;20987;-79
2021/09/19 03:45:52;;;;;;;9.43;5.17;;;13.90;98.30;;;;;;5166542;23;20428;-80
2021/09/19 03:47:57;;;;;;;9.80;4.60;;;13.90;98.30;;;;;;5166345;23;20497;-81
2021/09/19 03:50:00;;;;;;;6.07;4.43;;;14.00;98.30;;;;;;5166755;23;20434;-80
2021/09/19 03:52:05;;;;;;;7.30;4.70;;;14.00;98.30;;;;;;5167655;23;20482;-80
2021/09/19 03:54:08;;;;;;;4.97;4.47;;;14.00;98.30;;;;;;5168088;23;20451;-80
2021/09/19 03:56:11;;;;;;;5.30;4.57;;;14.00;98.30;;;;;;5168498;23;20427;-80
2021/09/19 03:58:13;;;;;;;5.90;4.50;;;13.90;98.30;;;;;;5168334;23;20489;-80
2021/09/19 04:00:17;;;;;;;6.07;4.27;;;13.90;98.30;;;;;;5169283;23;20436;-81
2021/09/19 04:02:20;;;;;;;5.17;4.67;;;13.90;98.30;;;;;;5168836;23;20443;-80
2021/09/19 04:04:23;;;;;;;6.90;4.77;;;13.90;98.30;;;;;;5168899;23;20424;-81
2021/09/19 04:06:26;;;;;;;6.03;4.80;;;14.00;98.30;;;;;;5169143;23;20428;-80
2021/09/19 04:08:30;;;;;;;11.70;4.90;;;14.10;98.30;;;;;;5168458;23;20514;-80
2021/09/19 04:10:33;;;;;;;5.90;4.13;;;14.10;98.30;;;;;;5169603;23;20432;-80
2021/09/19 04:12:36;;;;;;;7.23;4.60;;;14.10;98.30;;;;;;5169115;23;20452;-81
2021/09/19 04:14:40;;;;;;;5.43;4.40;;;13.90;98.30;;;;;;5169200;23;20444;-80
2021/09/19 04:16:43;;;;;;;7.07;4.90;;;13.80;98.30;;;;;;5169091;23;20435;-80
2021/09/19 04:18:45;;;;;;;7.30;4.43;;;13.80;98.30;;;;;;5168623;23;20800;-80
2021/09/19 04:20:48;;;;;;;6.67;4.60;;;13.70;98.30;;;;;;5169013;23;20431;-81
2021/09/19 04:22:51;;;;;;;7.03;4.40;;;13.70;98.30;;;;;;5169173;23;20526;-81
2021/09/19 04:24:56;;;;;;;5.93;4.30;;;13.60;98.30;;;;;;5169497;23;20420;-81
2021/09/19 04:26:58;;;;;;;7.33;4.83;;;13.60;98.30;;;;;;5169665;23;20490;-81
2021/09/19 04:29:01;;;;;;;8.30;4.40;;;13.60;98.30;;;;;;5169338;23;20438;-81
2021/09/19 04:31:04;;;;;;;5.10;4.23;;;13.60;98.30;;;;;;5170523;23;20428;-81
2021/09/19 04:33:07;;;;;;;10.60;5.00;;;13.50;98.30;;;;;;5170509;23;20424;-81
2021/09/19 04:35:10;;;;;;;5.70;4.13;;;13.50;98.30;;;;;;5175040;23;20776;-81
2021/09/19 04:37:16;;;;;;;7.80;4.60;;;13.50;98.30;;;;;;5170296;23;20428;-81
2021/09/19 04:39:19;;;;;;;7.43;4.93;;;13.50;98.30;;;;;;5169748;23;20872;-81
2021/09/19 04:41:24;;;;;;;7.03;4.90;;;13.70;98.30;;;;;;5169595;23;20769;-81
2021/09/19 04:43:26;;;;;;;5.30;4.13;;;13.70;98.30;;;;;;5169781;23;20726;-81
2021/09/19 04:45:29;;;;;;;7.87;4.33;;;13.70;98.30;;;;;;5177805;23;20422;-81
2021/09/19 04:47:32;;;;;;;6.70;4.37;;;13.60;98.30;;;;;;5177982;23;20451;-81
2021/09/19 04:49:36;;;;;;;10.80;5.90;;;13.60;98.30;;;;;;5169483;23;20503;-81
2021/09/19 04:51:39;;;;;;;6.13;4.50;;;13.50;98.30;;;;;;5176753;23;20444;-81
2021/09/19 04:53:42;;;;;;;5.93;4.47;;;13.70;98.30;;;;;;5169490;23;20432;-81
2021/09/19 04:55:44;;;;;;;4.33;3.70;;;13.60;98.30;;;;;;5168660;23;20432;-81
2021/09/19 04:57:49;;;;;;;5.67;4.70;;;13.60;98.30;;;;;;5177698;23;20422;-81
2021/09/19 04:59:52;;;;;;;5.37;3.80;;;13.60;98.30;;;;;;5169073;23;20423;-81
2021/09/19 05:01:54;;;;;;;7.70;4.50;;;13.50;98.30;;;;;;5169366;23;20444;-81
2021/09/19 05:03:58;;;;;;;6.20;4.00;;;13.50;98.30;;;;;;5177024;23;20445;-81
2021/09/19 05:06:01;;;;;;;5.67;4.37;;;13.60;98.30;;;;;;5169197;23;20909;-81
2021/09/19 05:08:04;;;;;;;7.90;3.70;;;13.50;98.30;;;;;;5168957;23;20428;-80
2021/09/19 05:10:08;;;;;;;6.60;4.43;;;13.50;98.30;;;;;;5168585;23;20430;-80
2021/09/19 05:12:11;;;;;;;6.70;4.87;;;13.50;98.30;;;;;;5168133;23;20444;-81
2021/09/19 05:14:15;;;;;;;4.50;3.90;;;13.50;98.30;;;;;;5172254;23;20960;-81
2021/09/19 05:16:18;;;;;;;6.00;4.30;;;13.40;98.30;;;;;;5175811;23;20515;-81
2021/09/19 05:18:21;;;;;;;11.43;5.00;;;13.40;98.30;;;;;;5175163;23;20455;-80
2021/09/19 05:20:24;;;;;;;8.20;4.43;;;13.40;98.30;;;;;;5173903;23;20482;-81
2021/09/19 05:24:43;;;;;;;4.70;3.70;;;13.40;98.30;;;;;;5157687;22;20486;-79
2021/09/19 05:26:46;;;;;;;5.20;3.87;;;13.40;98.30;;;;;;5167253;23;20432;-79
2021/09/19 05:28:49;;;;;;;5.30;4.00;;;13.40;98.30;;;;;;5168747;23;20442;-80
2021/09/19 05:30:53;;;;;;;6.07;4.33;;;13.40;98.30;;;;;;5168620;23;20432;-80
2021/09/19 05:32:56;;;;;;;5.00;3.60;;;13.40;98.30;;;;;;5167965;23;20977;-80
2021/09/19 05:34:59;;;;;;;5.10;4.53;;;13.30;98.30;;;;;;5167997;23;20746;-79
2021/09/19 05:37:03;;;;;;;5.57;4.83;;;13.30;98.30;;;;;;5176997;23;20424;-81
2021/09/19 05:39:06;;;;;;;7.07;4.23;;;13.50;98.30;;;;;;5167807;23;20436;-80
2021/09/19 05:41:09;;;;;;;5.80;4.27;;;13.70;98.30;;;;;;5168044;23;20431;-79
2021/09/19 05:43:11;;;;;;;6.83;4.50;;;13.80;98.30;;;;;;5167668;23;21031;-79
2021/09/19 05:45:15;;;;;;;8.63;4.37;;;13.90;98.30;;;;;;5167167;23;20430;-79
2021/09/19 05:47:19;;;;;;;6.00;4.70;;;13.90;98.30;;;;;;5167337;23;21454;-80
2021/09/19 05:49:22;;;;;;;6.77;4.67;;;14.00;98.30;;;;;;5167236;23;20494;-79
2021/09/19 05:51:25;;;;;;;6.07;4.63;;;14.10;98.30;;;;;;5167486;23;20823;-79
2021/09/19 05:53:28;;;;;;;7.00;4.20;;;14.00;98.30;;;;;;5168028;23;20434;-80
2021/09/19 05:55:31;;;;;;;7.40;4.23;;;14.00;98.30;;;;;;5167682;23;20447;-80
2021/09/19 05:57:34;;;;;;;5.90;4.37;;;13.90;98.30;;;;;;5168193;23;20428;-81
2021/09/19 05:59:36;;;;;;;6.60;4.37;;;13.80;98.30;;;;;;5177151;23;20980;-80
2021/09/19 06:01:39;;;;;;;4.73;4.20;;;13.90;98.30;;;;;;5168326;23;20502;-80
2021/09/19 06:03:43;;;;;;;6.47;4.10;;;14.00;98.30;;;;;;5168355;23;20458;-80
2021/09/19 06:05:46;;;;;;;5.93;4.43;;;14.00;98.30;;;;;;5168303;23;20498;-80
2021/09/19 06:07:49;;;;;;;7.33;4.57;;;14.20;98.30;;;;;;5176194;23;20893;-79
2021/09/19 06:09:53;;;;;;;5.30;4.47;;;14.10;98.30;;;;;;5176346;23;20470;-79
2021/09/19 06:11:56;;;;;;;6.67;4.73;;;14.00;98.30;;;;;;5176240;23;20933;-79
2021/09/19 06:13:58;;;;;;;6.93;4.73;;;14.00;98.30;;;;;;5167013;23;20489;-79
2021/09/19 06:16:01;;;;;;;4.80;4.00;;;14.00;98.30;;;;;;5175752;23;20446;-80
2021/09/19 06:18:04;;;;;;;7.00;4.33;;;14.10;98.30;;;;;;5175938;23;20820;-79
2021/09/19 06:20:10;;;;;;;6.60;4.43;;;14.10;98.30;;;;;;5170166;23;20442;-79
2021/09/19 06:22:13;;;;;;;5.33;4.00;;;14.10;98.30;;;;;;5182268;23;20467;-79
2021/09/19 06:24:16;;;;;;;5.43;3.87;;;14.00;98.30;;;;;;5181307;23;20439;-80
2021/09/19 06:26:19;;;;;;;7.80;4.57;;;13.90;98.30;;;;;;5173249;23;20726;-79
2021/09/19 06:28:22;;;;;;;7.87;4.70;;;13.90;98.30;;;;;;5173590;23;20428;-79
2021/09/19 06:30:26;;;;;;;5.73;4.07;;;13.80;98.30;;;;;;5173430;23;20515;-80
2021/09/19 06:32:28;;;;;;;6.40;4.70;;;13.80;98.30;;;;;;5181197;23;20531;-80
2021/09/19 06:34:31;;;;;;;7.27;4.70;;;13.70;98.30;;;;;;5168941;23;20428;-80
2021/09/19 06:36:36;;;;;;;7.07;4.60;;;13.70;98.30;;;;;;5168502;23;20447;-80
2021/09/19 06:38:38;;;;;;;4.90;4.40;;;13.60;98.30;;;;;;5169434;23;20428;-80
2021/09/19 06:40:42;;;;;;;5.90;4.73;;;13.50;98.30;;;;;;5168926;23;20477;-79
2021/09/19 06:42:45;;;;;;;5.90;4.70;;;13.50;98.30;;;;;;5168654;23;20478;-80
2021/09/19 06:44:49;;;;;;;5.63;4.60;;;13.50;98.30;;;;;;5177760;23;20419;-80
2021/09/19 06:46:53;;;;;;;7.37;4.30;;;13.50;98.30;;;;;;5169976;23;20507;-80
2021/09/19 06:48:56;;;;;;;7.60;3.97;;;13.70;98.30;;;;;;5170199;23;20424;-81
2021/09/19 06:50:59;;;;;;;4.60;4.10;;;13.70;98.30;;;;;;5169901;23;20985;-80
2021/09/19 06:53:04;;;;;;;6.40;3.93;;;13.60;98.30;;;;;;5169466;23;20459;-81
2021/09/19 06:55:07;;;;;;;4.80;3.93;;;13.50;98.30;;;;;;5168667;23;20424;-80
2021/09/19 06:57:11;;;;;;;4.93;4.37;;;13.50;98.30;;;;;;5168044;23;20782;-80
2021/09/19 06:59:14;;;;;;;4.80;4.10;;;13.50;98.30;;;;;;5167863;23;20428;-80
2021/09/19 07:01:16;;;;;;;5.97;4.17;;;13.50;98.30;;;;;;5167708;23;20435;-80
2021/09/19 07:03:21;;;;;;;4.60;3.83;;;13.50;98.30;;;;;;5167893;23;20936;-80
2021/09/19 07:05:25;;;;;;;7.13;4.07;;;13.50;98.30;;;;;;5166950;23;20450;-79
2021/09/19 07:07:28;;;;;;;6.77;5.13;;;13.60;98.30;;;;;;5166941;23;20427;-79
2021/09/19 07:09:32;;;;;;;5.27;4.47;;;13.70;98.30;;;;;;5167080;23;20518;-80
2021/09/19 07:11:36;;;;;;;5.73;4.63;;;13.80;98.30;;;;;;5167191;23;20477;-79
2021/09/19 07:13:39;;;;;;;5.70;4.30;;;13.80;98.30;;;;;;5168331;23;20432;-80
2021/09/19 07:15:43;;;;;;;10.00;4.50;;;14.00;98.30;;;;;;5168366;23;20999;-80
2021/09/19 07:17:46;;;;;;;7.07;4.57;;;14.00;98.30;;;;;;5167567;23;20520;-80
2021/09/19 07:19:49;;;;;;;8.27;4.90;;;14.10;98.30;;;;;;5167059;23;20431;-80
2021/09/19 07:21:52;;;;;;;4.80;4.10;;;14.20;98.30;;;;;;5167668;23;20478;-79
2021/09/19 07:23:55;;;;;;;5.13;4.20;;;14.30;98.30;;;;;;5167216;23;20435;-80
2021/09/19 07:25:59;;;;;;;6.20;4.13;;;14.40;98.30;;;;;;5167188;23;20435;-80
2021/09/19 07:28:04;;;;;;;5.00;3.97;;;14.40;98.30;;;;;;5168211;23;20424;-79
2021/09/19 07:30:08;;;;;;;8.87;5.30;;;14.50;98.30;;;;;;5167357;23;20431;-80
2021/09/19 07:32:12;;;;;;;5.80;4.30;;;14.50;98.30;;;;;;5175456;23;20522;-80
2021/09/19 07:34:16;;;;;;;6.50;4.37;;;14.50;98.30;;;;;;5166895;23;20424;-80
2021/09/19 07:36:25;;;;;;;5.37;4.00;;;14.60;98.30;;;;;;5167220;23;20444;-80
2021/09/19 07:38:28;;;;;;;4.37;3.77;;;14.70;98.30;;;;;;5166840;23;20411;-80
2021/09/19 07:40:32;;;;;;;5.17;4.17;;;14.70;98.30;;;;;;5167146;23;20431;-79
2021/09/19 07:42:37;;;;;;;9.10;4.27;;;14.80;98.30;;;;;;5175795;23;20442;-80
2021/09/19 07:44:41;;;;;;;6.40;4.73;;;14.90;98.30;;;;;;5167352;23;20431;-81
2021/09/19 07:46:44;;;;;;;6.87;4.47;;;15.00;98.30;;;;;;5168476;23;20430;-80
2021/09/19 07:48:48;;;;;;;7.87;4.60;;;15.10;98.30;;;;;;5168807;23;20494;-80
2021/09/19 07:50:52;;;;;;;6.37;4.30;;;15.20;98.30;;;;;;5168165;23;20794;-81
2021/09/19 07:52:55;;;;;;;5.20;4.70;;;15.10;98.30;;;;;;5168111;23;20454;-79
2021/09/19 07:54:58;;;;;;;6.50;4.20;;;15.20;98.30;;;;;;5167686;23;20434;-80
2021/09/19 07:57:01;;;;;;;6.27;4.30;;;15.10;98.30;;;;;;5175633;23;20827;-80
2021/09/19 07:59:06;;;;;;;6.33;4.83;;;15.00;98.30;;;;;;5166546;23;20428;-79
2021/09/19 08:01:09;;;;;;;5.70;4.57;;;15.00;98.30;;;;;;5167886;23;20436;-80
2021/09/19 08:03:12;;;;;;;6.00;4.53;;;14.90;98.30;;;;;;5168549;23;21017;-80
2021/09/19 08:05:16;;;;;;;8.93;6.33;;;14.80;98.30;;;;;;5167885;23;20482;-80
2021/09/19 08:07:21;;;;;;;6.67;4.60;;;14.90;98.30;;;;;;5167576;23;21038;-80
2021/09/19 08:09:25;;;;;;;5.43;4.00;;;14.90;98.30;;;;;;5177490;23;20511;-80
2021/09/19 08:11:28;;;;;;;7.40;4.10;;;14.90;98.30;;;;;;5169048;23;20479;-80
2021/09/19 08:13:31;;;;;;;4.60;4.03;;;14.80;98.30;;;;;;5168844;23;20428;-80
2021/09/19 08:15:35;;;;;;;8.23;4.30;;;14.80;98.30;;;;;;5168625;23;20511;-81
2021/09/19 08:17:39;;;;;;;5.30;4.13;;;14.80;98.30;;;;;;5169663;23;20454;-81
2021/09/19 08:19:42;;;;;;;5.57;4.50;;;14.80;98.30;;;;;;5178057;23;20905;-81
2021/09/19 08:21:45;;;;;;;4.90;3.77;;;14.90;98.30;;;;;;5169222;23;20428;-81
2021/09/19 08:23:48;;;;;;;5.07;4.53;;;15.00;98.30;;;;;;5167245;23;20466;-81
2021/09/19 08:25:51;;;;;;;5.40;4.33;;;14.90;98.30;;;;;;5177406;23;20448;-81
2021/09/19 08:27:55;;;;;;;7.30;4.77;;;14.80;98.30;;;;;;5178491;23;20920;-81
2021/09/19 08:29:58;;;;;;;15.63;10.60;;;14.60;98.30;;;;;;5169368;23;20438;-81
2021/09/19 08:32:03;;;;;;;11.20;5.97;;;14.70;98.30;;;;;;5168310;23;20451;-81
2021/09/19 08:34:07;;;;;;;11.10;7.93;;;14.70;98.30;;;;;;5177045;23;20804;-80
2021/09/19 08:36:10;;;;;;;8.27;4.40;;;14.70;98.30;;;;;;5170052;23;20427;-80
2021/09/19 08:38:13;;;;;;;7.63;4.80;;;14.80;98.30;;;;;;5170456;23;20434;-80
2021/09/19 08:40:16;;;;;;;7.13;5.80;;;14.90;98.30;;;;;;5180469;23;20422;-80
2021/09/19 08:42:22;;;;;;;8.17;4.73;;;14.90;98.30;;;;;;5171052;23;20534;-80
2021/09/19 08:44:25;;;;;;;20.13;13.53;;;15.10;98.30;;;;;;5171595;23;20483;-80
2021/09/19 08:46:29;;;;;;;23.17;16.23;;;15.10;98.30;;;;;;5179794;23;20478;-80
2021/09/19 08:48:34;;;;;;;20.53;11.20;;;15.20;98.30;;;;;;5171304;23;20424;-80
2021/09/19 08:50:37;;;;;;;7.00;4.80;;;15.20;98.30;;;;;;5171314;23;20428;-80
2021/09/19 08:52:41;;;;;;;10.23;6.87;;;15.00;98.30;;;;;;5170536;23;20487;-80
2021/09/19 08:54:44;;;;;;;8.43;6.87;;;15.00;98.30;;;;;;5177502;23;20477;-80
2021/09/19 08:56:48;;;;;;;12.33;9.13;;;15.10;98.30;;;;;;5169728;23;20448;-80
2021/09/19 08:58:51;;;;;;;7.83;6.03;;;15.30;98.30;;;;;;5169270;23;20424;-80
2021/09/19 09:00:54;;;;;;;7.23;6.20;;;15.50;98.30;;;;;;5169304;23;20438;-81
2021/09/19 09:02:57;;;;;;;7.30;5.40;;;15.70;98.30;;;;;;5178200;23;20439;-81
2021/09/19 09:05:02;;;;;;;7.00;4.70;;;15.80;98.30;;;;;;5170354;23;20543;-81
2021/09/19 09:07:08;;;;;;;5.90;5.17;;;15.90;98.30;;;;;;5172482;23;20721;-81
2021/09/19 09:09:15;;;;;;;6.00;4.57;;;15.90;98.30;;;;;;5182529;23;20452;-81
2021/09/19 09:11:18;;;;;;;6.77;4.83;;;15.90;98.30;;;;;;5170426;23;20924;-81
2021/09/19 09:13:23;;;;;;;5.60;4.70;;;15.90;98.30;;;;;;5177782;23;20439;-81
2021/09/19 09:15:37;;;;;;;8.80;4.43;;;15.80;98.30;;;;;;5170588;23;20750;-80
2021/09/19 09:17:43;;;;;;;4.63;3.97;;;16.00;98.30;;;;;;5180541;23;20817;-80
2021/09/19 09:19:47;;;;;;;6.23;4.50;;;16.00;98.30;;;;;;5162343;23;20423;-81
2021/09/19 09:22:05;;;;;;;6.80;4.50;;;16.00;98.30;;;;;;5176125;23;20597;-81
2021/09/19 09:24:16;;;;;;;7.53;5.27;;;16.00;98.30;;;;;;5169883;23;20823;-80
2021/09/19 09:26:26;;;;;;;4.90;3.80;;;16.10;98.30;;;;;;5171808;23;20479;-81
2021/09/19 09:28:40;;;;;;;5.97;3.73;;;16.30;98.30;;;;;;5168448;23;20471;-81
2021/09/19 09:30:45;;;;;;;6.10;4.87;;;16.20;98.30;;;;;;5179223;23;20450;-81
2021/09/19 09:32:59;;;;;;;5.30;3.87;;;16.20;98.30;;;;;;5177732;23;20744;-81
2021/09/19 09:35:11;;;;;;;5.80;3.80;;;15.90;98.30;;;;;;5179060;23;20499;-80
2021/09/19 09:37:20;;;;;;;5.53;3.77;;;16.00;98.30;;;;;;5170368;23;20435;-81
2021/09/19 09:39:31;;;;;;;4.73;4.07;;;15.90;98.30;;;;;;5176844;23;20443;-81
2021/09/19 09:42:06;;;;;;;5.07;4.37;;;15.80;98.30;;;;;;5176753;23;20434;-81
2021/09/19 09:44:40;;;;;;;4.90;3.57;;;15.90;98.30;;;;;;5099844;23;20739;-81
2021/09/19 09:47:33;;;;;;;4.40;4.00;;;15.90;98.30;;;;;;5170855;23;20503;-81
2021/09/19 09:50:07;;;;;;;5.60;4.73;;;16.20;98.30;;;;;;5179586;23;20729;-81
2021/09/19 09:56:08;;;;;;;7.03;5.80;;;16.20;98.30;;;;;;4957717;24;20433;-81
2021/09/19 09:58:26;;;;;;;4.80;4.27;;;16.20;98.30;;;;;;4971129;23;20932;-81
2021/09/19 10:00:41;;;;;;;7.50;4.80;;;16.00;98.30;;;;;;5074684;23;20428;-81
2021/09/19 10:03:07;;;;;;;5.27;4.63;;;16.00;98.30;;;;;;5075089;23;20555;-81
2021/09/19 10:05:32;;;;;;;7.07;4.70;;;16.00;98.30;;;;;;5067275;23;20431;-82
2021/09/19 10:08:09;;;;;;;6.33;4.93;;;16.10;98.30;;;;;;5074891;23;20439;-81
2021/09/19 10:13:00;;;;;;;4.70;3.70;;;16.20;98.30;;;;;;5066394;23;20444;-81
2021/09/19 10:15:47;;;;;;;5.07;3.93;;;16.20;98.30;;;;;;5046604;23;20424;-82
2021/09/19 10:18:48;;;;;;;5.47;4.00;;;16.10;98.30;;;;;;5029554;23;20462;-81
2021/09/19 10:21:17;;;;;;;5.90;3.80;;;16.20;98.30;;;;;;5101836;23;20431;-81
2021/09/19 10:23:38;;;;;;;6.33;4.20;;;16.10;98.30;;;;;;5089970;23;20422;-81
2021/09/19 10:25:53;;;;;;;4.47;3.70;;;16.10;98.30;;;;;;5101083;23;20410;-81
2021/09/19 10:28:28;;;;;;;6.43;3.83;;;16.10;98.30;;;;;;5102856;23;20400;-81
2021/09/19 10:30:31;;;;;;;5.80;4.37;;;16.20;98.30;;;;;;5102619;23;20905;-81
2021/09/19 10:32:38;;;;;;;5.13;4.20;;;16.30;98.30;;;;;;5106308;23;20469;-81
2021/09/19 10:34:52;;;;;;;4.67;4.00;;;16.30;98.30;;;;;;5102542;23;20436;-81
2021/09/19 10:36:57;;;;;;;5.70;4.53;;;16.50;98.30;;;;;;5095631;23;20469;-81
2021/09/19 10:39:28;;;;;;;4.90;4.00;;;16.30;98.30;;;;;;5110553;23;21422;-81
2021/09/19 10:41:32;;;;;;;6.63;4.50;;;16.50;98.30;;;;;;5115992;23;20442;-80
2021/09/19 10:43:49;;;;;;;4.20;3.50;;;16.50;98.30;;;;;;5116477;23;20418;-81
2021/09/19 10:45:55;;;;;;;5.80;4.07;;;16.40;98.30;;;;;;5116060;23;20433;-80
2021/09/19 10:48:13;;;;;;;6.03;4.37;;;16.10;98.30;;;;;;5147510;23;20446;-81
2021/09/19 10:50:36;;;;;;;6.43;4.60;;;16.30;98.30;;;;;;5192121;23;20423;-81
2021/09/19 10:52:42;;;;;;;5.60;4.23;;;16.50;98.30;;;;;;5191985;23;20480;-81
2021/09/19 10:54:48;;;;;;;5.70;4.40;;;16.60;98.30;;;;;;5182005;23;20474;-81
2021/09/19 10:56:58;;;;;;;6.00;4.00;;;16.70;98.30;;;;;;5180402;23;21015;-81
2021/09/19 10:59:01;;;;;;;4.70;4.10;;;16.80;98.30;;;;;;5179337;23;20447;-81
2021/09/19 11:01:15;;;;;;;6.40;4.90;;;16.80;98.30;;;;;;5178412;23;20430;-83